F/V Adeline Stephen — FGUF — position and weather

sailwx.info

Track history (hours):
 
Tides and Currents Weather Stations Pressure Air Temp Water Temp Dewpoint Dewpoint Depression Visibility Wind Speed Wind Dir Waves Ship Positions

F/V Adeline Stephen

Last reported at 2016-May-02 16:06 UTC. Time now 2016-May-04 01:52 UTC.
Position N 47°35' W 003°45'.

Length 18 m.

Type: Fishing. MMSI: 228929000.

Date/timePositionNaut miles runAvg speedWind from/ knotsBaromVisibWave heightAir tempDewpointWater temp
2016-May-02 16:06N 47°35' W 003°45'5 8.5
2016-May-02 15:34N 47°37' W 003°39'8 8.4
2016-May-02 14:34N 47°40' W 003°28'5 5.1
2016-May-02 13:33N 47°44' W 003°22'0 0.2
2016-May-02 12:34N 47°44' W 003°22'0 0.0
2016-May-02 11:34N 47°44' W 003°22'4 3.9
2016-May-02 10:34N 47°41' W 003°25'  
2016-Apr-28 17:04N 47°35' W 003°45'4 8.3
2016-Apr-28 16:33N 47°37' W 003°40'8 8.1
2016-Apr-28 15:33N 47°40' W 003°29'6 6.1
2016-Apr-28 14:33N 47°44' W 003°22'0 0.0
2016-Apr-28 13:33N 47°44' W 003°22'0 0.1
2016-Apr-28 12:33N 47°44' W 003°22'2 2.0
2016-Apr-28 11:33N 47°42' W 003°23'  
2016-Apr-23 18:22N 47°34' W 003°49'7 9.1
2016-Apr-23 17:33N 47°37' W 003°39'9 8.8
2016-Apr-23 16:33N 47°41' W 003°27'5 4.6
2016-Apr-23 15:33N 47°44' W 003°22'0 0.1
2016-Apr-23 14:33N 47°44' W 003°22'0 0.0
2016-Apr-23 13:33N 47°44' W 003°22'0 0.0
2016-Apr-23 12:33N 47°44' W 003°22'4 3.7
2016-Apr-23 11:33N 47°41' W 003°25'  
Track history (hours):
 
Tides and Currents Weather Stations Pressure Air Temp Water Temp Dewpoint Dewpoint Depression Visibility Wind Speed Wind Dir Waves Ship Positions

F/V Adeline Stephen

Last reported at 2016-May-02 16:06 UTC. Time now 2016-May-04 01:52 UTC.
Position N 47°35' W 003°45'.

Length 18 m.

Type: Fishing. MMSI: 228929000.

Date/timePositionNaut miles runAvg speedWind from/ knotsBaromVisibWave heightAir tempDewpointWater temp
2016-May-02 16:06N 47°35' W 003°45'5 8.5
2016-May-02 15:34N 47°37' W 003°39'8 8.4
2016-May-02 14:34N 47°40' W 003°28'5 5.1
2016-May-02 13:33N 47°44' W 003°22'0 0.2
2016-May-02 12:34N 47°44' W 003°22'0 0.0
2016-May-02 11:34N 47°44' W 003°22'4 3.9
2016-May-02 10:34N 47°41' W 003°25'  
2016-Apr-28 17:04N 47°35' W 003°45'4 8.3
2016-Apr-28 16:33N 47°37' W 003°40'8 8.1
2016-Apr-28 15:33N 47°40' W 003°29'6 6.1
2016-Apr-28 14:33N 47°44' W 003°22'0 0.0
2016-Apr-28 13:33N 47°44' W 003°22'0 0.1
2016-Apr-28 12:33N 47°44' W 003°22'2 2.0
2016-Apr-28 11:33N 47°42' W 003°23'  
2016-Apr-23 18:22N 47°34' W 003°49'7 9.1
2016-Apr-23 17:33N 47°37' W 003°39'9 8.8
2016-Apr-23 16:33N 47°41' W 003°27'5 4.6
2016-Apr-23 15:33N 47°44' W 003°22'0 0.1
2016-Apr-23 14:33N 47°44' W 003°22'0 0.0
2016-Apr-23 13:33N 47°44' W 003°22'0 0.0
2016-Apr-23 12:33N 47°44' W 003°22'4 3.7
2016-Apr-23 11:33N 47°41' W 003°25'  

Dump ship's entire track history